createdAt,value
2023-03-17T00:00:18.958Z,95185.00
2023-03-17T00:56:29.911Z,95140.00
2023-03-17T01:00:30.840Z,95136.00
2023-03-17T01:04:30.741Z,95132.00
2023-03-17T01:08:30.938Z,95128.00
2023-03-17T01:32:31.296Z,95115.00
2023-03-17T01:36:31.288Z,95105.00
2023-03-17T01:40:31.929Z,95109.00
2023-03-17T01:44:31.369Z,95111.00
2023-03-17T01:48:31.367Z,95113.00
2023-03-17T01:52:31.347Z,95113.00
2023-03-17T01:56:31.357Z,95113.00
2023-03-17T02:00:31.878Z,95111.00
2023-03-17T02:04:31.483Z,95107.00
2023-03-17T02:08:31.409Z,95103.00
2023-03-17T02:12:31.439Z,95101.00
2023-03-17T02:16:31.500Z,95095.00
2023-03-17T02:20:31.979Z,95091.00
2023-03-17T02:24:31.481Z,95085.00
2023-03-17T02:28:31.496Z,95085.00
2023-03-17T02:32:31.567Z,95079.00
2023-03-17T02:36:31.585Z,95079.00
2023-03-17T02:44:31.542Z,95087.00
2023-03-17T02:48:31.539Z,95085.00
2023-03-17T02:52:31.479Z,95087.00
2023-03-17T02:56:31.451Z,95085.00
2023-03-17T03:00:31.841Z,95081.00
2023-03-17T03:04:31.396Z,95079.00
2023-03-17T03:08:31.339Z,95068.00
2023-03-17T03:12:31.305Z,95068.00
2023-03-17T03:16:31.258Z,95062.00
2023-03-17T03:20:31.674Z,95068.00
2023-03-17T03:24:31.187Z,95072.00
2023-03-17T03:28:31.150Z,95074.00
2023-03-17T03:32:31.136Z,95072.00
2023-03-17T03:36:31.106Z,95070.00
2023-03-17T03:40:31.522Z,95076.00
2023-03-17T03:44:31.013Z,95083.00
2023-03-17T03:48:30.968Z,95087.00
2023-03-17T03:52:30.962Z,95083.00
2023-03-17T03:56:30.957Z,95076.00
2023-03-17T04:00:31.138Z,95072.00
2023-03-17T04:04:30.874Z,95060.00
2023-03-17T04:08:30.902Z,95066.00
2023-03-17T04:12:30.874Z,95054.00
2023-03-17T04:16:30.964Z,95052.00
2023-03-17T04:20:31.113Z,95052.00
2023-03-17T04:24:30.967Z,95052.00
2023-03-17T04:28:30.971Z,95048.00
2023-03-17T04:32:31.003Z,95038.00
2023-03-17T04:36:31.009Z,95038.00
2023-03-17T04:40:31.370Z,95036.00
2023-03-17T04:44:31.024Z,95038.00
2023-03-17T04:48:31.036Z,95034.00
2023-03-17T04:52:31.035Z,95029.00
2023-03-17T04:56:32.010Z,95029.00
2023-03-17T05:00:31.284Z,95030.00
2023-03-17T05:04:32.351Z,95029.00
2023-03-17T05:08:31.122Z,95027.00
2023-03-17T05:12:31.159Z,95029.00
2023-03-17T05:16:31.225Z,95023.00
2023-03-17T05:20:31.478Z,95029.00
2023-03-17T05:24:31.159Z,95030.00
2023-03-17T05:28:31.203Z,95030.00
2023-03-17T05:32:31.640Z,95027.00
2023-03-17T05:36:31.222Z,95030.00
2023-03-17T05:40:31.610Z,95021.00
2023-03-17T05:44:31.298Z,95032.00
2023-03-17T05:48:31.289Z,95027.00
2023-03-17T05:52:31.303Z,95029.00
2023-03-17T05:56:31.314Z,95025.00
2023-03-17T06:00:31.916Z,95029.00
2023-03-17T06:04:31.362Z,95032.00
2023-03-17T06:08:31.508Z,95027.00
2023-03-17T06:12:30.376Z,95021.00
2023-03-17T06:16:31.411Z,95017.00
2023-03-17T06:20:31.376Z,95017.00
2023-03-17T06:24:31.504Z,95021.00
2023-03-17T06:28:31.504Z,95019.00
2023-03-17T06:32:31.585Z,95013.00
2023-03-17T06:36:31.321Z,95017.00
2023-03-17T06:40:31.512Z,95019.00
2023-03-17T06:44:31.513Z,95017.00
2023-03-17T06:48:31.546Z,95017.00
2023-03-17T06:52:32.018Z,95015.00
2023-03-17T06:56:31.668Z,95021.00
2023-03-17T07:00:32.139Z,95013.00
2023-03-17T07:04:32.118Z,95019.00
2023-03-17T07:08:32.018Z,95019.00
2023-03-17T07:12:31.821Z,95013.00
2023-03-17T07:16:32.052Z,95011.00
2023-03-17T07:20:32.139Z,95013.00
2023-03-17T07:24:32.068Z,95009.00
2023-03-17T07:28:32.523Z,95001.00
2023-03-17T07:32:32.132Z,94995.00
2023-03-17T07:36:32.565Z,94995.00
2023-03-17T07:40:34.879Z,95001.00
2023-03-17T07:44:32.536Z,94997.00
2023-03-17T07:48:32.533Z,94995.00
2023-03-17T07:52:32.921Z,94993.00
2023-03-17T07:56:32.037Z,94989.00
2023-03-17T08:00:32.391Z,94982.00
2023-03-17T08:04:32.035Z,94974.00
2023-03-17T08:08:32.255Z,94968.00
2023-03-17T08:12:32.071Z,94974.00
2023-03-17T08:16:32.096Z,94972.00
2023-03-17T08:20:31.482Z,94966.00
2023-03-17T08:24:32.070Z,94958.00
2023-03-17T08:28:32.046Z,94954.00
2023-03-17T08:32:33.599Z,94946.00
2023-03-17T08:36:32.079Z,94946.00
2023-03-17T08:40:32.244Z,94944.00
2023-03-17T08:44:32.081Z,94938.00
2023-03-17T08:48:32.058Z,94923.00
2023-03-17T08:52:32.749Z,94921.00
2023-03-17T08:56:32.103Z,94919.00
2023-03-17T09:00:32.377Z,94913.00
2023-03-17T09:04:33.089Z,94911.00
2023-03-17T09:08:32.065Z,94903.00
2023-03-17T09:12:34.115Z,94901.00
2023-03-17T09:16:31.626Z,94887.00
2023-03-17T09:20:31.867Z,94885.00
2023-03-17T09:24:31.607Z,94876.00
2023-03-17T09:28:31.592Z,94874.00
2023-03-17T09:32:31.427Z,94870.00
2023-03-17T09:36:31.582Z,94866.00
2023-03-17T09:40:31.977Z,94860.00
2023-03-17T09:44:31.596Z,94850.00
2023-03-17T09:48:31.238Z,94848.00
2023-03-17T09:52:31.576Z,94844.00
2023-03-17T09:56:32.074Z,94838.00
2023-03-17T10:04:31.103Z,94829.00
2023-03-17T10:08:32.352Z,94825.00
2023-03-17T10:12:31.200Z,94819.00
2023-03-17T10:16:31.267Z,94817.00
2023-03-17T10:20:31.592Z,94809.00
2023-03-17T10:24:31.589Z,94799.00
2023-03-17T10:28:31.592Z,94789.00
2023-03-17T10:32:31.626Z,94789.00
2023-03-17T10:36:31.599Z,94778.00
2023-03-17T10:40:31.971Z,94774.00
2023-03-17T10:44:31.102Z,94764.00
2023-03-17T10:48:31.171Z,94764.00
2023-03-17T10:52:31.605Z,94758.00
2023-03-17T10:56:32.100Z,94748.00
2023-03-17T11:04:31.649Z,94739.00
2023-03-17T11:08:31.642Z,94731.00
2023-03-17T11:12:31.416Z,94723.00
2023-03-17T11:16:31.730Z,94719.00
2023-03-17T11:20:31.818Z,94715.00
2023-03-17T11:24:32.227Z,94707.00
2023-03-17T11:28:31.635Z,94703.00
2023-03-17T11:32:31.736Z,94697.00
2023-03-17T11:36:31.513Z,94690.00
2023-03-17T11:40:32.143Z,94686.00
2023-03-17T11:44:31.649Z,94680.00
2023-03-17T11:48:31.653Z,94670.00
2023-03-17T11:52:31.697Z,94666.00
2023-03-17T11:56:31.647Z,94664.00
2023-03-17T12:00:31.950Z,94662.00
2023-03-17T12:04:31.394Z,94654.00
2023-03-17T12:08:31.675Z,94648.00
2023-03-17T12:12:31.397Z,94642.00
2023-03-17T12:16:31.646Z,94629.00
2023-03-17T12:20:31.975Z,94623.00
2023-03-17T12:24:31.335Z,94617.00
2023-03-17T12:28:31.649Z,94607.00
2023-03-17T12:32:31.670Z,94601.00
2023-03-17T12:36:31.655Z,94595.00
2023-03-17T12:40:32.178Z,94595.00
2023-03-17T12:44:31.260Z,94590.00
2023-03-17T12:48:31.308Z,94584.00
2023-03-17T12:52:31.276Z,94584.00
2023-03-17T12:56:31.705Z,94578.00
2023-03-17T13:00:31.204Z,94576.00
2023-03-17T13:04:31.662Z,94566.00
2023-03-17T13:12:31.208Z,94560.00
2023-03-17T13:16:31.209Z,94558.00
2023-03-17T13:20:31.043Z,94554.00
2023-03-17T13:24:30.988Z,94548.00
2023-03-17T13:28:30.976Z,94541.00
2023-03-17T13:32:31.200Z,94539.00
2023-03-17T13:36:30.881Z,94533.00
2023-03-17T13:40:31.466Z,94537.00
2023-03-17T13:44:30.885Z,94529.00
2023-03-17T13:48:31.200Z,94531.00
2023-03-17T13:52:31.699Z,94531.00
2023-03-17T13:56:34.731Z,94527.00
2023-03-17T14:00:32.291Z,94521.00
2023-03-17T14:04:33.532Z,94521.00
2023-03-17T14:08:31.706Z,94517.00
2023-03-17T14:12:31.704Z,94509.00
2023-03-17T14:16:31.923Z,94505.00
2023-03-17T14:20:31.719Z,94500.00
2023-03-17T14:24:31.243Z,94498.00
2023-03-17T14:28:31.711Z,94496.00
2023-03-17T14:32:31.558Z,94490.00
2023-03-17T14:36:31.712Z,94488.00
2023-03-17T14:40:31.859Z,94482.00
2023-03-17T14:44:32.035Z,94476.00
2023-03-17T14:48:32.193Z,94480.00
2023-03-17T14:52:32.332Z,94482.00
2023-03-17T14:56:32.421Z,94480.00
2023-03-17T15:00:32.503Z,94482.00
2023-03-17T15:04:32.781Z,94482.00
2023-03-17T15:08:34.527Z,94480.00
2023-03-17T15:12:32.625Z,94482.00
2023-03-17T15:16:32.601Z,94482.00
2023-03-17T15:20:33.415Z,94476.00
2023-03-17T15:24:32.734Z,94474.00
2023-03-17T15:28:32.750Z,94476.00
2023-03-17T15:32:32.805Z,94472.00
2023-03-17T15:36:33.506Z,94472.00
2023-03-17T15:40:33.361Z,94472.00
2023-03-17T15:44:33.026Z,94470.00
2023-03-17T15:48:33.252Z,94466.00
2023-03-17T15:52:33.789Z,94466.00
2023-03-17T15:56:33.376Z,94464.00
2023-03-17T16:00:33.878Z,94456.00
2023-03-17T16:04:34.297Z,94462.00
2023-03-17T16:08:33.443Z,94460.00
2023-03-17T16:12:33.750Z,94458.00
2023-03-17T16:16:33.572Z,94456.00
2023-03-17T16:20:34.114Z,94456.00
2023-03-17T16:24:33.673Z,94458.00
2023-03-17T16:28:33.731Z,94462.00
2023-03-17T16:32:34.299Z,94464.00
2023-03-17T16:36:33.977Z,94466.00
2023-03-17T16:40:34.254Z,94470.00
2023-03-17T16:44:36.859Z,94472.00
2023-03-17T16:48:34.093Z,94476.00
2023-03-17T16:52:34.070Z,94482.00
2023-03-17T16:56:34.143Z,94484.00
2023-03-17T17:00:34.258Z,94494.00
2023-03-17T17:04:33.955Z,94500.00
2023-03-17T17:08:33.925Z,94507.00
2023-03-17T17:12:33.904Z,94511.00
2023-03-17T17:16:34.339Z,94519.00
2023-03-17T17:20:34.779Z,94521.00
2023-03-17T17:24:33.777Z,94521.00
2023-03-17T17:28:33.769Z,94523.00
2023-03-17T17:32:33.730Z,94525.00
2023-03-17T17:36:33.787Z,94523.00
2023-03-17T17:40:34.108Z,94527.00
2023-03-17T17:44:33.626Z,94535.00
2023-03-17T17:48:33.562Z,94535.00
2023-03-17T17:52:33.531Z,94533.00
2023-03-17T17:56:33.491Z,94533.00
2023-03-17T18:00:33.746Z,94539.00
2023-03-17T18:04:33.613Z,94541.00
2023-03-17T18:08:33.641Z,94543.00
2023-03-17T18:12:33.738Z,94545.00
2023-03-17T18:16:33.871Z,94543.00
2023-03-17T18:20:34.762Z,94547.00
2023-03-17T18:24:33.934Z,94547.00
2023-03-17T18:28:34.069Z,94543.00
2023-03-17T18:32:34.230Z,94547.00
2023-03-17T18:36:34.175Z,94548.00
2023-03-17T18:40:34.720Z,94550.00
2023-03-17T18:44:34.399Z,94554.00
2023-03-17T18:48:34.537Z,94556.00
2023-03-17T18:52:34.644Z,94560.00
2023-03-17T18:56:34.810Z,94560.00
2023-03-17T19:00:34.892Z,94566.00
2023-03-17T19:04:35.039Z,94564.00
2023-03-17T19:08:35.097Z,94564.00
2023-03-17T19:12:35.826Z,94564.00
2023-03-17T19:16:35.351Z,94562.00
2023-03-17T19:20:35.314Z,94564.00
2023-03-17T19:24:35.351Z,94568.00
2023-03-17T19:28:35.380Z,94568.00
2023-03-17T19:32:35.447Z,94570.00
2023-03-17T19:36:35.516Z,94570.00
2023-03-17T19:40:36.333Z,94576.00
2023-03-17T19:44:35.645Z,94576.00
2023-03-17T19:48:35.701Z,94576.00
2023-03-17T19:52:35.890Z,94578.00
2023-03-17T19:56:35.839Z,94580.00
2023-03-17T20:00:35.902Z,94580.00
2023-03-17T20:04:36.431Z,94580.00
2023-03-17T20:08:42.854Z,94582.00
2023-03-17T20:12:35.980Z,94580.00
2023-03-17T20:16:35.943Z,94580.00
2023-03-17T20:20:35.901Z,94580.00
2023-03-17T20:24:35.896Z,94582.00
2023-03-17T20:28:35.852Z,94580.00
2023-03-17T20:32:35.846Z,94578.00
2023-03-17T20:36:35.765Z,94580.00
2023-03-17T20:40:35.787Z,94574.00
2023-03-17T20:44:35.842Z,94570.00
2023-03-17T20:48:35.899Z,94570.00
2023-03-17T20:52:35.952Z,94574.00
2023-03-17T20:56:36.038Z,94574.00
2023-03-17T21:00:36.065Z,94576.00
2023-03-17T21:04:36.109Z,94574.00
2023-03-17T21:08:36.157Z,94574.00
2023-03-17T21:12:36.241Z,94574.00
2023-03-17T21:16:36.346Z,94584.00
2023-03-17T21:20:36.313Z,94584.00
2023-03-17T21:24:36.367Z,94590.00
2023-03-17T21:28:36.448Z,94592.00
2023-03-17T21:32:36.680Z,94594.00
2023-03-17T21:36:36.526Z,94599.00
2023-03-17T21:40:36.553Z,94597.00
2023-03-17T21:44:36.598Z,94601.00
2023-03-17T21:48:36.606Z,94599.00
2023-03-17T21:52:36.878Z,94599.00
2023-03-17T21:56:36.685Z,94601.00
2023-03-17T22:00:45.006Z,94609.00
2023-03-17T22:04:36.707Z,94609.00
2023-03-17T22:08:36.655Z,94623.00
2023-03-17T22:12:36.616Z,94631.00
2023-03-17T22:16:36.642Z,94648.00
2023-03-17T22:20:36.550Z,94644.00
2023-03-17T22:24:37.385Z,94652.00
2023-03-17T22:28:36.473Z,94648.00
2023-03-17T22:32:36.536Z,94650.00
2023-03-17T22:36:36.413Z,94660.00
2023-03-17T22:40:36.373Z,94666.00
2023-03-17T22:44:36.340Z,94666.00
2023-03-17T22:48:36.424Z,94668.00
2023-03-17T22:52:36.406Z,94680.00
2023-03-17T22:56:36.368Z,94676.00
2023-03-17T23:00:36.429Z,94680.00
2023-03-17T23:04:36.530Z,94678.00
2023-03-17T23:08:36.583Z,94682.00
2023-03-17T23:12:36.601Z,94688.00
2023-03-17T23:16:36.690Z,94694.00
2023-03-17T23:20:36.778Z,94705.00
2023-03-17T23:24:36.734Z,94707.00
2023-03-17T23:28:39.416Z,94707.00
2023-03-17T23:32:36.795Z,94711.00
2023-03-17T23:36:36.740Z,94709.00
2023-03-17T23:40:36.683Z,94723.00
2023-03-17T23:44:36.640Z,94731.00
2023-03-17T23:48:43.407Z,94737.00
2023-03-17T23:52:36.584Z,94735.00
2023-03-17T23:56:36.524Z,94741.00
